sensor_id;sensor_type;location;lat;lon;timestamp;pressure;altitude;pressure_sealevel;temperature;humidity
21504;BME280;10913;51.992;9.228;2023-07-28T00:02:04;99131.84;;;18.19;100.00
21504;BME280;10913;51.992;9.228;2023-07-28T00:04:30;99125.53;;;18.20;100.00
21504;BME280;10913;51.992;9.228;2023-07-28T00:06:55;99139.69;;;18.22;100.00
21504;BME280;10913;51.992;9.228;2023-07-28T00:09:20;99135.28;;;18.21;100.00
21504;BME280;10913;51.992;9.228;2023-07-28T00:11:47;99126.50;;;18.19;100.00
21504;BME280;10913;51.992;9.228;2023-07-28T00:14:13;99136.44;;;18.17;100.00
21504;BME280;10913;51.992;9.228;2023-07-28T00:16:38;99129.38;;;18.16;100.00
21504;BME280;10913;51.992;9.228;2023-07-28T00:19:03;99134.72;;;18.16;100.00
21504;BME280;10913;51.992;9.228;2023-07-28T00:21:29;99134.72;;;18.16;100.00
21504;BME280;10913;51.992;9.228;2023-07-28T00:23:54;99131.09;;;18.17;100.00
21504;BME280;10913;51.992;9.228;2023-07-28T00:26:20;99123.16;;;18.16;100.00
21504;BME280;10913;51.992;9.228;2023-07-28T00:28:45;99129.38;;;18.16;100.00
21504;BME280;10913;51.992;9.228;2023-07-28T00:31:11;99133.84;;;18.16;100.00
21504;BME280;10913;51.992;9.228;2023-07-28T00:33:37;99124.97;;;18.15;100.00
21504;BME280;10913;51.992;9.228;2023-07-28T00:36:03;99117.81;;;18.16;100.00
21504;BME280;10913;51.992;9.228;2023-07-28T00:38:28;99115.22;;;18.14;100.00
21504;BME280;10913;51.992;9.228;2023-07-28T00:40:53;99113.50;;;18.13;100.00
21504;BME280;10913;51.992;9.228;2023-07-28T00:43:19;99120.56;;;18.14;100.00
21504;BME280;10913;51.992;9.228;2023-07-28T00:45:44;99116.94;;;18.15;100.00
21504;BME280;10913;51.992;9.228;2023-07-28T00:48:12;99120.56;;;18.14;100.00
21504;BME280;10913;51.992;9.228;2023-07-28T00:50:43;99119.78;;;18.12;100.00
21504;BME280;10913;51.992;9.228;2023-07-28T00:53:09;99129.63;;;18.12;100.00
21504;BME280;10913;51.992;9.228;2023-07-28T00:55:35;99124.25;;;18.12;100.00
21504;BME280;10913;51.992;9.228;2023-07-28T00:58:00;99124.34;;;18.10;100.00
21504;BME280;10913;51.992;9.228;2023-07-28T01:00:26;99131.41;;;18.11;100.00
21504;BME280;10913;51.992;9.228;2023-07-28T01:02:51;99117.09;;;18.12;100.00
21504;BME280;10913;51.992;9.228;2023-07-28T01:05:17;99118.84;;;18.13;100.00
21504;BME280;10913;51.992;9.228;2023-07-28T01:08:02;99120.56;;;18.14;100.00
21504;BME280;10913;51.992;9.228;2023-07-28T01:10:31;99120.56;;;18.14;100.00
21504;BME280;10913;51.992;9.228;2023-07-28T01:12:59;99119.63;;;18.15;100.00
21504;BME280;10913;51.992;9.228;2023-07-28T01:15:25;99116.94;;;18.15;100.00
21504;BME280;10913;51.992;9.228;2023-07-28T01:17:51;99115.22;;;18.14;100.00
21504;BME280;10913;51.992;9.228;2023-07-28T01:20:16;99124.19;;;18.13;100.00
21504;BME280;10913;51.992;9.228;2023-07-28T01:23:05;99133.16;;;18.12;100.00
21504;BME280;10913;51.992;9.228;2023-07-28T01:28:10;99126.84;;;18.13;100.00
21504;BME280;10913;51.992;9.228;2023-07-28T01:30:38;99136.69;;;18.13;100.00
21504;BME280;10913;51.992;9.228;2023-07-28T01:33:06;99135.81;;;18.12;100.00
21504;BME280;10913;51.992;9.228;2023-07-28T01:35:32;99137.72;;;18.10;100.00
21504;BME280;10913;51.992;9.228;2023-07-28T01:37:57;99135.91;;;18.11;100.00
21504;BME280;10913;51.992;9.228;2023-07-28T01:40:23;99141.25;;;18.11;100.00
21504;BME280;10913;51.992;9.228;2023-07-28T01:42:48;99132.38;;;18.10;100.00
21504;BME280;10913;51.992;9.228;2023-07-28T01:45:14;99130.72;;;18.08;100.00
21504;BME280;10913;51.992;9.228;2023-07-28T01:47:39;99132.53;;;18.07;100.00
21504;BME280;10913;51.992;9.228;2023-07-28T01:50:05;99129.00;;;18.07;100.00
21504;BME280;10913;51.992;9.228;2023-07-28T01:52:30;99132.69;;;18.04;100.00
21504;BME280;10913;51.992;9.228;2023-07-28T01:54:56;99133.66;;;18.03;100.00
21504;BME280;10913;51.992;9.228;2023-07-28T01:57:21;99137.09;;;18.05;100.00
21504;BME280;10913;51.992;9.228;2023-07-28T01:59:47;99140.72;;;18.04;100.00
21504;BME280;10913;51.992;9.228;2023-07-28T02:02:12;99140.81;;;18.03;100.00
21504;BME280;10913;51.992;9.228;2023-07-28T02:04:37;99140.72;;;18.04;100.00
21504;BME280;10913;51.992;9.228;2023-07-28T02:07:03;99137.19;;;18.04;100.00
21504;BME280;10913;51.992;9.228;2023-07-28T02:09:28;99133.47;;;18.06;100.00
21504;BME280;10913;51.992;9.228;2023-07-28T02:11:54;99139.59;;;18.08;100.00
21504;BME280;10913;51.992;9.228;2023-07-28T02:14:19;99136.00;;;18.09;100.00
21504;BME280;10913;51.992;9.228;2023-07-28T02:16:44;99130.81;;;18.06;100.00
21504;BME280;10913;51.992;9.228;2023-07-28T02:19:10;99132.53;;;18.07;100.00
21504;BME280;10913;51.992;9.228;2023-07-28T02:21:35;99137.03;;;18.07;100.00
21504;BME280;10913;51.992;9.228;2023-07-28T02:24:01;99136.94;;;18.08;100.00
21504;BME280;10913;51.992;9.228;2023-07-28T02:26:26;99137.03;;;18.07;100.00
21504;BME280;10913;51.992;9.228;2023-07-28T02:28:51;99131.59;;;18.08;100.00
21504;BME280;10913;51.992;9.228;2023-07-28T02:31:17;99130.66;;;18.09;100.00
21504;BME280;10913;51.992;9.228;2023-07-28T02:33:42;99132.38;;;18.10;100.00
21504;BME280;10913;51.992;9.228;2023-07-28T02:36:07;99141.34;;;18.09;100.00
21504;BME280;10913;51.992;9.228;2023-07-28T02:38:33;99137.81;;;18.09;100.00
21504;BME280;10913;51.992;9.228;2023-07-28T02:40:58;99144.97;;;18.08;100.00
21504;BME280;10913;51.992;9.228;2023-07-28T02:43:24;99141.41;;;18.08;100.00
21504;BME280;10913;51.992;9.228;2023-07-28T02:45:57;99142.28;;;18.08;100.00
21504;BME280;10913;51.992;9.228;2023-07-28T02:48:22;99144.16;;;18.06;100.00
21504;BME280;10913;51.992;9.228;2023-07-28T02:50:49;99150.38;;;18.07;100.00
21504;BME280;10913;51.992;9.228;2023-07-28T02:53:15;99151.31;;;18.06;100.00
21504;BME280;10913;51.992;9.228;2023-07-28T02:55:44;99151.41;;;18.04;100.00
21504;BME280;10913;51.992;9.228;2023-07-28T02:58:10;99148.75;;;18.04;100.00
21504;BME280;10913;51.992;9.228;2023-07-28T03:00:43;99153.13;;;18.05;100.00
21504;BME280;10913;51.992;9.228;2023-07-28T03:03:09;99150.63;;;18.02;100.00
21504;BME280;10913;51.992;9.228;2023-07-28T03:05:39;99156.84;;;18.03;100.00
21504;BME280;10913;51.992;9.228;2023-07-28T03:08:05;99145.38;;;18.01;100.00
21504;BME280;10913;51.992;9.228;2023-07-28T03:10:31;99146.22;;;18.01;100.00
21504;BME280;10913;51.992;9.228;2023-07-28T03:12:57;99149.69;;;18.03;100.00
21504;BME280;10913;51.992;9.228;2023-07-28T03:15:22;99163.22;;;18.00;100.00
21504;BME280;10913;51.992;9.228;2023-07-28T03:17:48;99164.16;;;17.99;100.00
21504;BME280;10913;51.992;9.228;2023-07-28T03:20:14;99167.81;;;17.98;100.00
21504;BME280;10913;51.992;9.228;2023-07-28T03:22:40;99169.69;;;17.96;100.00
21504;BME280;10913;51.992;9.228;2023-07-28T03:25:05;99170.66;;;17.95;100.00
21504;BME280;10913;51.992;9.228;2023-07-28T03:27:31;99178.66;;;17.95;100.00
21504;BME280;10913;51.992;9.228;2023-07-28T03:29:56;99178.66;;;17.95;100.00
21504;BME280;10913;51.992;9.228;2023-07-28T03:32:21;99175.13;;;17.95;100.00
21504;BME280;10913;51.992;9.228;2023-07-28T03:34:47;99174.19;;;17.96;100.00
21504;BME280;10913;51.992;9.228;2023-07-28T03:37:12;99180.38;;;17.96;100.00
21504;BME280;10913;51.992;9.228;2023-07-28T03:39:37;99175.91;;;17.97;100.00
21504;BME280;10913;51.992;9.228;2023-07-28T03:42:03;99176.84;;;17.96;100.00
21504;BME280;10913;51.992;9.228;2023-07-28T03:44:28;99178.66;;;17.95;100.00
21504;BME280;10913;51.992;9.228;2023-07-28T03:46:54;99171.59;;;17.94;100.00
21504;BME280;10913;51.992;9.228;2023-07-28T03:49:19;99178.81;;;17.92;100.00
21504;BME280;10913;51.992;9.228;2023-07-28T03:51:45;99174.34;;;17.93;100.00
21504;BME280;10913;51.992;9.228;2023-07-28T03:54:11;99176.16;;;17.92;100.00
21504;BME280;10913;51.992;9.228;2023-07-28T03:56:36;99184.88;;;17.96;100.00
21504;BME280;10913;51.992;9.228;2023-07-28T03:59:01;99184.88;;;17.96;100.00
21504;BME280;10913;51.992;9.228;2023-07-28T04:01:27;99173.31;;;17.95;100.00
21504;BME280;10913;51.992;9.228;2023-07-28T04:03:52;99173.31;;;17.95;100.00
21504;BME280;10913;51.992;9.228;2023-07-28T04:06:17;99182.13;;;17.97;100.00
21504;BME280;10913;51.992;9.228;2023-07-28T04:08:43;99177.72;;;17.96;100.00
21504;BME280;10913;51.992;9.228;2023-07-28T04:11:08;99176.00;;;17.95;100.00
21504;BME280;10913;51.992;9.228;2023-07-28T04:13:34;99177.72;;;17.96;100.00
21504;BME280;10913;51.992;9.228;2023-07-28T04:16:00;99189.28;;;17.97;100.00
21504;BME280;10913;51.992;9.228;2023-07-28T04:18:26;99183.84;;;17.98;100.00
21504;BME280;10913;51.992;9.228;2023-07-28T04:20:51;99186.41;;;18.00;100.00
21504;BME280;10913;51.992;9.228;2023-07-28T04:23:17;99189.94;;;18.00;100.00
21504;BME280;10913;51.992;9.228;2023-07-28T04:25:42;99187.09;;;18.03;100.00
21504;BME280;10913;51.992;9.228;2023-07-28T04:28:07;99184.50;;;18.02;100.00
21504;BME280;10913;51.992;9.228;2023-07-28T04:30:34;99195.91;;;18.05;100.00
21504;BME280;10913;51.992;9.228;2023-07-28T04:32:59;99192.28;;;18.06;100.00
21504;BME280;10913;51.992;9.228;2023-07-28T04:35:24;99191.41;;;18.06;100.00
21504;BME280;10913;51.992;9.228;2023-07-28T04:37:50;99190.56;;;18.05;100.00
21504;BME280;10913;51.992;9.228;2023-07-28T04:40:15;99192.44;;;18.03;100.00
21504;BME280;10913;51.992;9.228;2023-07-28T04:42:40;99191.41;;;18.06;100.00
21504;BME280;10913;51.992;9.228;2023-07-28T04:45:06;99202.03;;;18.07;100.00
21504;BME280;10913;51.992;9.228;2023-07-28T04:47:32;99204.78;;;18.06;100.00
21504;BME280;10913;51.992;9.228;2023-07-28T04:49:57;99204.00;;;18.04;100.00
21504;BME280;10913;51.992;9.228;2023-07-28T04:52:23;99202.28;;;18.03;100.00
21504;BME280;10913;51.992;9.228;2023-07-28T04:54:48;99203.91;;;18.05;100.00
21504;BME280;10913;51.992;9.228;2023-07-28T04:57:14;99200.31;;;18.06;100.00
21504;BME280;10913;51.992;9.228;2023-07-28T04:59:39;99196.69;;;18.07;100.00
21504;BME280;10913;51.992;9.228;2023-07-28T05:02:05;99209.97;;;18.09;100.00
21504;BME280;10913;51.992;9.228;2023-07-28T05:04:31;99202.03;;;18.07;100.00
21504;BME280;10913;51.992;9.228;2023-07-28T05:06:56;99199.28;;;18.09;100.00
21504;BME280;10913;51.992;9.228;2023-07-28T05:09:21;99209.03;;;18.10;100.00
21504;BME280;10913;51.992;9.228;2023-07-28T05:11:47;99201.09;;;18.08;100.00
21504;BME280;10913;51.992;9.228;2023-07-28T05:14:12;99214.38;;;18.10;100.00
21504;BME280;10913;51.992;9.228;2023-07-28T05:16:37;99204.38;;;18.13;100.00
21504;BME280;10913;51.992;9.228;2023-07-28T05:19:06;99209.56;;;18.16;100.00
21504;BME280;10913;51.992;9.228;2023-07-28T05:21:34;99216.63;;;18.17;100.00
21504;BME280;10913;51.992;9.228;2023-07-28T05:24:00;99216.44;;;18.20;100.00
21504;BME280;10913;51.992;9.228;2023-07-28T05:26:25;99210.16;;;18.21;100.00
21504;BME280;10913;51.992;9.228;2023-07-28T05:28:50;99219.81;;;18.24;100.00
21504;BME280;10913;51.992;9.228;2023-07-28T05:31:16;99210.75;;;18.27;100.00
21504;BME280;10913;51.992;9.228;2023-07-28T05:33:41;99225.00;;;18.27;100.00
21504;BME280;10913;51.992;9.228;2023-07-28T05:36:07;99222.31;;;18.27;100.00
21504;BME280;10913;51.992;9.228;2023-07-28T05:38:32;99226.63;;;18.30;100.00
21504;BME280;10913;51.992;9.228;2023-07-28T05:41:02;99225.59;;;18.32;100.00
21504;BME280;10913;51.992;9.228;2023-07-28T05:43:29;99227.25;;;18.35;100.00
21504;BME280;10913;51.992;9.228;2023-07-28T05:45:55;99226.09;;;18.39;100.00
21504;BME280;10913;51.992;9.228;2023-07-28T05:48:21;99215.25;;;18.42;100.00
21504;BME280;10913;51.992;9.228;2023-07-28T05:50:47;99224.91;;;18.44;100.00
21504;BME280;10913;51.992;9.228;2023-07-28T05:53:12;99224.81;;;18.46;100.00
21504;BME280;10913;51.992;9.228;2023-07-28T05:55:39;99231.75;;;18.50;100.00
21504;BME280;10913;51.992;9.228;2023-07-28T05:58:05;99234.31;;;18.51;100.00
21504;BME280;10913;51.992;9.228;2023-07-28T06:00:30;99231.41;;;18.56;100.00
21504;BME280;10913;51.992;9.228;2023-07-28T06:02:56;99236.66;;;18.57;100.00
21504;BME280;10913;51.992;9.228;2023-07-28T06:05:22;99245.38;;;18.61;100.00
21504;BME280;10913;51.992;9.228;2023-07-28T06:07:47;99257.72;;;18.64;100.00
21504;BME280;10913;51.992;9.228;2023-07-28T06:10:12;99239.09;;;18.62;100.00
21504;BME280;10913;51.992;9.228;2023-07-28T06:12:38;99254.19;;;18.63;100.00
21504;BME280;10913;51.992;9.228;2023-07-28T06:15:03;99245.22;;;18.64;100.00
21504;BME280;10913;51.992;9.228;2023-07-28T06:17:29;99253.34;;;18.63;100.00
21504;BME280;10913;51.992;9.228;2023-07-28T06:19:54;99251.53;;;18.63;100.00
21504;BME280;10913;51.992;9.228;2023-07-28T06:22:20;99249.47;;;18.68;100.00
21504;BME280;10913;51.992;9.228;2023-07-28T06:24:45;99255.25;;;18.76;100.00
21504;BME280;10913;51.992;9.228;2023-07-28T06:27:10;99248.56;;;18.83;100.00
21504;BME280;10913;51.992;9.228;2023-07-28T06:29:36;99256.19;;;18.91;100.00
21504;BME280;10913;51.992;9.228;2023-07-28T06:32:02;99258.78;;;18.92;100.00
21504;BME280;10913;51.992;9.228;2023-07-28T06:34:27;99257.03;;;18.91;100.00
21504;BME280;10913;51.992;9.228;2023-07-28T06:36:53;99261.34;;;18.94;100.00
21504;BME280;10913;51.992;9.228;2023-07-28T06:39:18;99272.75;;;18.98;100.00
21504;BME280;10913;51.992;9.228;2023-07-28T06:41:44;99269.09;;;18.99;100.00
21504;BME280;10913;51.992;9.228;2023-07-28T06:44:09;99259.16;;;19.01;100.00
21504;BME280;10913;51.992;9.228;2023-07-28T06:46:35;99272.38;;;19.04;100.00
21504;BME280;10913;51.992;9.228;2023-07-28T06:49:00;99283.69;;;19.09;100.00
21504;BME280;10913;51.992;9.228;2023-07-28T06:51:25;99281.03;;;19.09;100.00
21504;BME280;10913;51.992;9.228;2023-07-28T06:53:51;99273.94;;;19.08;100.00
21504;BME280;10913;51.992;9.228;2023-07-28T06:56:17;99285.50;;;19.08;100.00
21504;BME280;10913;51.992;9.228;2023-07-28T06:58:42;99288.97;;;19.10;100.00
21504;BME280;10913;51.992;9.228;2023-07-28T07:01:07;99288.88;;;19.12;100.00
21504;BME280;10913;51.992;9.228;2023-07-28T07:03:38;99289.66;;;19.14;100.00
21504;BME280;10913;51.992;9.228;2023-07-28T07:06:04;99285.66;;;19.21;100.00
21504;BME280;10913;51.992;9.228;2023-07-28T07:08:29;99296.00;;;19.27;100.00
21504;BME280;10913;51.992;9.228;2023-07-28T07:16:05;99307.94;;;19.37;100.00
21504;BME280;10913;51.992;9.228;2023-07-28T07:18:34;99299.78;;;19.39;100.00
21504;BME280;10913;51.992;9.228;2023-07-28T07:21:02;99314.03;;;19.39;100.00
21504;BME280;10913;51.992;9.228;2023-07-28T07:23:31;99299.78;;;19.39;100.00
21504;BME280;10913;51.992;9.228;2023-07-28T07:25:56;99294.63;;;19.36;100.00
21504;BME280;10913;51.992;9.228;2023-07-28T07:28:22;99306.22;;;19.36;100.00
21504;BME280;10913;51.992;9.228;2023-07-28T07:30:49;99311.19;;;19.42;100.00
21504;BME280;10913;51.992;9.228;2023-07-28T07:33:16;99314.63;;;19.44;100.00
21504;BME280;10913;51.992;9.228;2023-07-28T07:35:42;99323.28;;;19.49;100.00
21504;BME280;10913;51.992;9.228;2023-07-28T07:38:08;99317.78;;;19.52;100.00
21504;BME280;10913;51.992;9.228;2023-07-28T07:40:38;99327.53;;;19.53;100.00
21504;BME280;10913;51.992;9.228;2023-07-28T07:43:04;99328.31;;;19.55;100.00
21504;BME280;10913;51.992;9.228;2023-07-28T07:45:30;99326.59;;;19.54;100.00
21504;BME280;10913;51.992;9.228;2023-07-28T07:47:55;99337.31;;;19.54;100.00
21504;BME280;10913;51.992;9.228;2023-07-28T07:50:21;99344.56;;;19.52;100.00
21504;BME280;10913;51.992;9.228;2023-07-28T07:52:47;99343.69;;;19.52;100.00
21504;BME280;10913;51.992;9.228;2023-07-28T07:55:13;99347.25;;;19.52;100.00
21504;BME280;10913;51.992;9.228;2023-07-28T07:57:39;99341.81;;;19.54;100.00
21504;BME280;10913;51.992;9.228;2023-07-28T08:05:08;99350.75;;;19.69;100.00
21504;BME280;10913;51.992;9.228;2023-07-28T08:07:35;99353.34;;;19.70;100.00
21504;BME280;10913;51.992;9.228;2023-07-28T08:10:01;99359.56;;;19.71;100.00
21504;BME280;10913;51.992;9.228;2023-07-28T08:12:27;99358.00;;;19.67;100.00
21504;BME280;10913;51.992;9.228;2023-07-28T08:14:53;99358.00;;;19.67;100.00
21504;BME280;10913;51.992;9.228;2023-07-28T08:17:18;99366.31;;;19.62;100.00
21504;BME280;10913;51.992;9.228;2023-07-28T08:19:44;99368.03;;;19.63;100.00
21504;BME280;10913;51.992;9.228;2023-07-28T08:22:09;99371.66;;;19.62;100.00
21504;BME280;10913;51.992;9.228;2023-07-28T08:24:35;99366.41;;;19.60;100.00
21504;BME280;10913;51.992;9.228;2023-07-28T08:27:00;99359.72;;;19.68;100.00
21504;BME280;10913;51.992;9.228;2023-07-28T08:29:26;99375.38;;;19.75;100.00
21504;BME280;10913;51.992;9.228;2023-07-28T08:31:51;99366.47;;;19.75;100.00
21504;BME280;10913;51.992;9.228;2023-07-28T08:34:16;99371.25;;;19.84;100.00
21504;BME280;10913;51.992;9.228;2023-07-28T08:36:43;99367.28;;;19.91;100.00
21504;BME280;10913;51.992;9.228;2023-07-28T08:39:08;99367.47;;;20.02;100.00
21504;BME280;10913;51.992;9.228;2023-07-28T08:41:34;99363.03;;;20.17;100.00
21504;BME280;10913;51.992;9.228;2023-07-28T08:44:00;99358.53;;;20.32;100.00
21504;BME280;10913;51.992;9.228;2023-07-28T08:46:25;99358.56;;;20.60;100.00
21504;BME280;10913;51.992;9.228;2023-07-28T08:48:51;99361.19;;;21.03;100.00
21504;BME280;10913;51.992;9.228;2023-07-28T08:51:16;99360.72;;;21.51;100.00
21504;BME280;10913;51.992;9.228;2023-07-28T08:53:42;99366.59;;;21.83;100.00
21504;BME280;10913;51.992;9.228;2023-07-28T08:56:08;99367.63;;;21.95;100.00
21504;BME280;10913;51.992;9.228;2023-07-28T08:58:33;99370.31;;;21.95;100.00
21504;BME280;10913;51.992;9.228;2023-07-28T09:00:59;99367.91;;;21.90;100.00
21504;BME280;10913;51.992;9.228;2023-07-28T09:03:28;99374.72;;;21.96;100.00
21504;BME280;10913;51.992;9.228;2023-07-28T09:06:01;99370.31;;;21.95;100.00
21504;BME280;10913;51.992;9.228;2023-07-28T09:08:26;99369.66;;;21.91;100.00
21504;BME280;10913;51.992;9.228;2023-07-28T09:10:52;99373.34;;;22.03;100.00
21504;BME280;10913;51.992;9.228;2023-07-28T09:13:19;99372.53;;;22.15;100.00
21504;BME280;10913;51.992;9.228;2023-07-28T09:15:46;99383.53;;;22.38;100.00
21504;BME280;10913;51.992;9.228;2023-07-28T09:18:13;99381.97;;;22.59;100.00
21504;BME280;10913;51.992;9.228;2023-07-28T09:20:40;99376.81;;;22.94;100.00
21504;BME280;10913;51.992;9.228;2023-07-28T09:23:13;99372.22;;;23.20;100.00
21504;BME280;10913;51.992;9.228;2023-07-28T09:25:39;99377.09;;;23.38;100.00
21504;BME280;10913;51.992;9.228;2023-07-28T09:28:04;99390.56;;;23.51;99.45
21504;BME280;10913;51.992;9.228;2023-07-28T09:30:49;99398.22;;;23.45;97.40
21504;BME280;10913;51.992;9.228;2023-07-28T09:33:32;99394.63;;;23.20;98.35
21504;BME280;10913;51.992;9.228;2023-07-28T09:36:07;99401.91;;;23.07;99.40
21504;BME280;10913;51.992;9.228;2023-07-28T09:38:36;99400.09;;;22.95;98.88
21504;BME280;10913;51.992;9.228;2023-07-28T09:41:04;99397.84;;;22.89;99.45
21504;BME280;10913;51.992;9.228;2023-07-28T09:43:32;99402.03;;;22.93;99.38
21504;BME280;10913;51.992;9.228;2023-07-28T09:45:58;99399.41;;;23.04;99.36
21504;BME280;10913;51.992;9.228;2023-07-28T09:48:24;99409.53;;;23.13;100.00
21504;BME280;10913;51.992;9.228;2023-07-28T09:50:51;99400.66;;;23.24;99.03
21504;BME280;10913;51.992;9.228;2023-07-28T09:53:18;99400.00;;;23.33;97.98
21504;BME280;10913;51.992;9.228;2023-07-28T09:55:47;99401.91;;;23.56;97.11
21504;BME280;10913;51.992;9.228;2023-07-28T09:58:16;99404.34;;;23.83;97.14
21504;BME280;10913;51.992;9.228;2023-07-28T10:00:43;99398.94;;;24.18;95.57
21504;BME280;10913;51.992;9.228;2023-07-28T10:03:09;99400.28;;;24.48;93.27
21504;BME280;10913;51.992;9.228;2023-07-28T10:05:36;99402.38;;;24.66;92.20
21504;BME280;10913;51.992;9.228;2023-07-28T10:08:02;99408.16;;;24.62;90.93
21504;BME280;10913;51.992;9.228;2023-07-28T10:10:28;99405.91;;;24.45;91.88
21504;BME280;10913;51.992;9.228;2023-07-28T10:12:54;99407.53;;;24.23;92.09
21504;BME280;10913;51.992;9.228;2023-07-28T10:15:29;99420.00;;;24.02;93.30
21504;BME280;10913;51.992;9.228;2023-07-28T10:17:56;99417.47;;;23.88;93.90
21504;BME280;10913;51.992;9.228;2023-07-28T10:23:21;99410.59;;;23.84;94.60
21504;BME280;10913;51.992;9.228;2023-07-28T10:25:56;99419.88;;;23.80;95.31
21504;BME280;10913;51.992;9.228;2023-07-28T10:28:30;99414.75;;;23.77;95.79
21504;BME280;10913;51.992;9.228;2023-07-28T10:30:57;99413.69;;;23.66;95.63
21504;BME280;10913;51.992;9.228;2023-07-28T10:33:30;99423.00;;;23.62;95.79
21504;BME280;10913;51.992;9.228;2023-07-28T10:35:58;99424.56;;;23.54;96.39
21504;BME280;10913;51.992;9.228;2023-07-28T10:38:34;99427.81;;;23.33;95.14
21504;BME280;10913;51.992;9.228;2023-07-28T10:41:15;99432.56;;;23.30;96.36
21504;BME280;10913;51.992;9.228;2023-07-28T10:43:41;99429.06;;;23.41;97.20
21504;BME280;10913;51.992;9.228;2023-07-28T10:46:08;99433.38;;;23.43;94.84
21504;BME280;10913;51.992;9.228;2023-07-28T10:48:35;99428.22;;;23.53;95.11
21504;BME280;10913;51.992;9.228;2023-07-28T10:51:01;99429.97;;;23.78;95.28
21504;BME280;10913;51.992;9.228;2023-07-28T10:53:26;99428.72;;;23.82;94.02
21504;BME280;10913;51.992;9.228;2023-07-28T10:55:52;99434.13;;;23.82;93.78
21504;BME280;10913;51.992;9.228;2023-07-28T10:58:19;99442.97;;;23.84;93.58
21504;BME280;10913;51.992;9.228;2023-07-28T11:00:45;99439.59;;;23.69;93.25
21504;BME280;10913;51.992;9.228;2023-07-28T11:03:12;99444.78;;;23.59;94.02
21504;BME280;10913;51.992;9.228;2023-07-28T11:05:37;99446.75;;;23.45;94.51
21504;BME280;10913;51.992;9.228;2023-07-28T11:08:05;99445.34;;;23.39;94.86
21504;BME280;10913;51.992;9.228;2023-07-28T11:10:32;99450.03;;;23.37;95.46
21504;BME280;10913;51.992;9.228;2023-07-28T11:13:00;99444.38;;;23.40;96.43
21504;BME280;10913;51.992;9.228;2023-07-28T11:15:26;99443.66;;;23.38;95.70
21504;BME280;10913;51.992;9.228;2023-07-28T11:17:52;99446.97;;;23.42;96.27
21504;BME280;10913;51.992;9.228;2023-07-28T11:20:18;99435.72;;;23.60;96.98
21504;BME280;10913;51.992;9.228;2023-07-28T11:22:46;99445.78;;;23.82;95.53
21504;BME280;10913;51.992;9.228;2023-07-28T11:25:13;99446.63;;;24.07;95.77
21504;BME280;10913;51.992;9.228;2023-07-28T11:27:40;99447.53;;;24.18;93.99
21504;BME280;10913;51.992;9.228;2023-07-28T11:30:09;99447.72;;;24.28;93.03
21504;BME280;10913;51.992;9.228;2023-07-28T11:32:37;99432.69;;;24.48;93.20
21504;BME280;10913;51.992;9.228;2023-07-28T11:35:05;99434.69;;;24.68;93.04
21504;BME280;10913;51.992;9.228;2023-07-28T11:37:31;99430.13;;;24.80;91.45
21504;BME280;10913;51.992;9.228;2023-07-28T11:39:59;99441.81;;;24.69;91.52
21504;BME280;10913;51.992;9.228;2023-07-28T11:42:26;99442.31;;;24.74;91.11
21504;BME280;10913;51.992;9.228;2023-07-28T11:44:52;99439.50;;;24.76;91.23
21504;BME280;10913;51.992;9.228;2023-07-28T11:47:17;99443.78;;;24.89;90.54
21504;BME280;10913;51.992;9.228;2023-07-28T11:49:49;99440.41;;;25.10;89.99
21504;BME280;10913;51.992;9.228;2023-07-28T11:52:16;99444.06;;;25.31;90.11
21504;BME280;10913;51.992;9.228;2023-07-28T11:54:41;99442.44;;;25.39;87.99
21504;BME280;10913;51.992;9.228;2023-07-28T11:57:08;99436.78;;;25.42;87.46
21504;BME280;10913;51.992;9.228;2023-07-28T11:59:34;99446.63;;;25.55;88.83
21504;BME280;10913;51.992;9.228;2023-07-28T12:02:01;99445.38;;;25.70;89.17
21504;BME280;10913;51.992;9.228;2023-07-28T12:04:32;99443.47;;;25.93;88.34
21504;BME280;10913;51.992;9.228;2023-07-28T12:07:02;99445.38;;;26.02;86.47
21504;BME280;10913;51.992;9.228;2023-07-28T12:09:28;99449.31;;;26.09;85.77
21504;BME280;10913;51.992;9.228;2023-07-28T12:11:54;99449.94;;;26.01;85.40
21504;BME280;10913;51.992;9.228;2023-07-28T12:14:33;99452.28;;;26.06;85.21
21504;BME280;10913;51.992;9.228;2023-07-28T12:16:59;99441.72;;;26.24;84.23
21504;BME280;10913;51.992;9.228;2023-07-28T12:19:24;99449.28;;;26.41;84.59
21504;BME280;10913;51.992;9.228;2023-07-28T12:21:50;99449.50;;;26.49;83.04
21504;BME280;10913;51.992;9.228;2023-07-28T12:24:15;99450.13;;;26.53;82.43
21504;BME280;10913;51.992;9.228;2023-07-28T12:26:40;99455.41;;;26.54;82.21
21504;BME280;10913;51.992;9.228;2023-07-28T12:29:06;99462.13;;;26.60;83.12
21504;BME280;10913;51.992;9.228;2023-07-28T12:31:31;99457.91;;;26.67;81.48
21504;BME280;10913;51.992;9.228;2023-07-28T12:33:58;99457.88;;;26.88;82.51
21504;BME280;10913;51.992;9.228;2023-07-28T12:36:23;99458.28;;;26.83;80.04
21504;BME280;10913;51.992;9.228;2023-07-28T12:38:48;99464.09;;;26.99;80.97
21504;BME280;10913;51.992;9.228;2023-07-28T12:41:14;99463.41;;;26.97;79.50
21504;BME280;10913;51.992;9.228;2023-07-28T12:43:39;99468.59;;;27.10;79.56
21504;BME280;10913;51.992;9.228;2023-07-28T12:46:05;99475.53;;;27.03;80.69
21504;BME280;10913;51.992;9.228;2023-07-28T12:48:30;99467.13;;;26.85;79.24
21504;BME280;10913;51.992;9.228;2023-07-28T12:50:56;99458.88;;;26.87;79.95
21504;BME280;10913;51.992;9.228;2023-07-28T12:53:21;99464.09;;;26.99;80.28
21504;BME280;10913;51.992;9.228;2023-07-28T12:55:46;99461.84;;;27.04;79.98
21504;BME280;10913;51.992;9.228;2023-07-28T12:58:12;99461.31;;;26.90;78.59
21504;BME280;10913;51.992;9.228;2023-07-28T13:00:37;99457.75;;;26.89;80.87
21504;BME280;10913;51.992;9.228;2023-07-28T13:03:06;99459.66;;;26.98;81.34
21504;BME280;10913;51.992;9.228;2023-07-28T13:05:31;99461.44;;;27.09;80.78